Time;durP1;ratioP1;P1;durP2;ratioP2;P2;SDS_P1;SDS_P2;PMS_P1;PMS_P2;Temp;Humidity;BMP_temperature;BMP_pressure;BME280_temperature;BME280_humidity;BME280_pressure;Samples;Min_cycle;Max_cycle;Signal;HPM_P1;HPM_P2
2023/03/22 00:01:10;;;;;;;3.40;3.10;;;12.10;8.40;;;;;;5078376;28;20506;-47
2023/03/22 00:03:36;;;;;;;4.27;3.87;;;12.10;10.70;;;;;;5079038;28;20177;-44
2023/03/22 00:06:01;;;;;;;4.73;3.43;;;12.00;17.30;;;;;;5078802;28;20415;-44
2023/03/22 00:08:27;;;;;;;4.67;3.50;;;12.00;27.40;;;;;;5078655;28;20174;-45
2023/03/22 00:10:53;;;;;;;3.97;3.57;;;12.00;38.40;;;;;;5078893;28;20177;-47
2023/03/22 00:13:18;;;;;;;4.63;4.20;;;12.00;45.10;;;;;;5078621;28;20638;-42
2023/03/22 00:15:47;;;;;;;3.63;3.33;;;11.90;58.20;;;;;;5078629;28;20447;-46
2023/03/22 00:18:13;;;;;;;4.93;3.70;;;11.90;72.40;;;;;;5078343;28;20185;-45
2023/03/22 00:20:46;;;;;;;4.97;3.63;;;11.90;87.00;;;;;;5076838;28;20749;-42
2023/03/22 00:23:12;;;;;;;3.93;3.53;;;11.90;92.20;;;;;;5077979;28;20470;-42
2023/03/22 00:25:37;;;;;;;4.23;3.83;;;11.80;97.70;;;;;;5078501;28;20443;-44
2023/03/22 00:28:03;;;;;;;4.87;3.27;;;11.80;99.90;;;;;;5077925;28;20240;-43
2023/03/22 00:30:29;;;;;;;3.90;3.30;;;11.70;99.90;;;;;;5077925;28;20169;-44
2023/03/22 00:32:54;;;;;;;3.87;3.57;;;11.70;99.90;;;;;;5078578;28;20185;-43
2023/03/22 00:35:20;;;;;;;3.97;3.33;;;11.60;99.90;;;;;;5077153;28;20265;-43
2023/03/22 00:37:46;;;;;;;4.30;3.50;;;11.60;99.90;;;;;;5075346;28;20177;-43
2023/03/22 00:40:12;;;;;;;3.73;3.40;;;11.60;99.90;;;;;;5075696;28;20290;-42
2023/03/22 00:42:39;;;;;;;3.67;3.37;;;11.50;99.90;;;;;;5075595;28;20562;-46
2023/03/22 00:45:07;;;;;;;4.00;3.60;;;11.50;99.90;;;;;;5075906;28;20411;-43
2023/03/22 00:47:32;;;;;;;3.83;3.50;;;11.50;99.90;;;;;;5058456;28;20422;-45
2023/03/22 00:49:58;;;;;;;5.87;3.63;;;11.40;99.90;;;;;;5075598;28;20498;-44
2023/03/22 00:52:24;;;;;;;4.67;3.77;;;11.40;99.90;;;;;;5077059;28;20234;-45
2023/03/22 00:54:50;;;;;;;4.67;3.73;;;11.40;99.90;;;;;;5077966;28;20435;-43
2023/03/22 00:57:16;;;;;;;5.93;3.27;;;11.40;99.90;;;;;;5077921;28;20173;-42
2023/03/22 00:59:42;;;;;;;3.60;3.30;;;11.30;99.90;;;;;;5077429;28;20205;-44
2023/03/22 01:02:12;;;;;;;3.83;3.50;;;11.30;99.90;;;;;;5077915;28;20415;-43
2023/03/22 01:04:45;;;;;;;3.43;3.13;;;11.30;99.90;;;;;;5077302;28;20435;-43
2023/03/22 01:07:16;;;;;;;3.80;3.50;;;11.20;99.90;;;;;;5077301;28;20412;-46
2023/03/22 01:09:45;;;;;;;4.20;3.80;;;11.20;99.90;;;;;;5078303;28;20441;-42
2023/03/22 01:12:11;;;;;;;4.03;3.63;;;11.10;99.90;;;;;;5078342;28;20415;-43
2023/03/22 01:14:37;;;;;;;5.63;3.50;;;11.10;99.90;;;;;;5077887;28;20871;-45
2023/03/22 01:17:03;;;;;;;4.17;3.80;;;11.00;99.90;;;;;;5076915;28;20184;-43
2023/03/22 01:19:28;;;;;;;2.97;2.67;;;11.00;99.90;;;;;;5077501;28;20824;-42
2023/03/22 01:21:54;;;;;;;3.33;2.90;;;11.00;99.90;;;;;;5077543;28;20411;-43
2023/03/22 01:24:20;;;;;;;5.47;3.23;;;10.90;99.90;;;;;;5076665;28;20560;-42
2023/03/22 01:26:45;;;;;;;5.83;3.20;;;10.90;99.90;;;;;;5077875;28;20558;-45
2023/03/22 01:29:12;;;;;;;3.00;2.70;;;10.90;99.90;;;;;;5077506;28;20173;-43
2023/03/22 01:31:37;;;;;;;5.67;3.07;;;10.80;99.90;;;;;;5076660;28;20177;-43
2023/03/22 01:34:03;;;;;;;7.30;3.03;;;10.80;1.00;;;;;;5077978;28;20668;-44
2023/03/22 01:36:29;;;;;;;3.80;3.13;;;10.70;1.00;;;;;;5076417;28;20172;-43
2023/03/22 01:38:55;;;;;;;3.53;3.03;;;10.70;1.00;;;;;;5077161;28;21533;-44
2023/03/22 01:41:21;;;;;;;3.37;2.43;;;10.70;1.00;;;;;;5077195;28;20509;-45
2023/03/22 01:44:10;;;;;;;3.93;2.87;;;10.60;1.00;;;;;;5077008;28;20173;-42
2023/03/22 01:46:35;;;;;;;2.70;2.50;;;10.60;1.00;;;;;;5077061;28;20404;-42
2023/03/22 01:49:02;;;;;;;3.20;2.90;;;10.50;1.00;;;;;;5077523;28;20484;-42
2023/03/22 01:51:28;;;;;;;3.13;2.87;;;10.50;1.00;;;;;;5077878;28;20567;-42
2023/03/22 01:53:59;;;;;;;2.60;2.40;;;10.50;1.00;;;;;;5076301;28;20429;-42
2023/03/22 01:56:28;;;;;;;3.23;2.53;;;10.50;1.00;;;;;;5077381;28;20420;-45
2023/03/22 01:58:54;;;;;;;3.37;2.30;;;10.40;1.00;;;;;;5075593;28;20490;-43
2023/03/22 02:01:20;;;;;;;3.03;2.37;;;10.40;1.00;;;;;;5076920;28;20844;-43
2023/03/22 02:04:05;;;;;;;3.40;2.50;;;10.30;1.00;;;;;;5076803;28;20442;-42
2023/03/22 02:06:32;;;;;;;2.83;2.27;;;10.30;1.00;;;;;;5075453;28;20424;-43
2023/03/22 02:08:57;;;;;;;3.10;2.80;;;10.30;1.00;;;;;;5076450;28;20462;-41
2023/03/22 02:11:28;;;;;;;3.27;2.40;;;10.30;1.00;;;;;;5076393;28;20415;-42
2023/03/22 02:14:02;;;;;;;3.10;2.63;;;10.20;1.00;;;;;;5075679;28;20179;-45
2023/03/22 02:17:01;;;;;;;4.07;2.50;;;10.20;1.00;;;;;;5076374;28;20481;-43
2023/03/22 02:19:50;;;;;;;3.23;2.93;;;10.20;1.00;;;;;;5076465;28;20459;-45
2023/03/22 02:22:46;;;;;;;3.30;2.90;;;10.20;1.00;;;;;;5076586;28;20410;-42
2023/03/22 02:25:50;;;;;;;3.70;3.20;;;10.10;1.00;;;;;;5075462;28;20976;-43
2023/03/22 02:28:36;;;;;;;4.70;3.23;;;10.10;1.00;;;;;;5039275;28;20815;-42
2023/03/22 02:31:11;;;;;;;3.13;2.83;;;10.10;1.00;;;;;;5076773;28;20434;-43
2023/03/22 02:34:32;;;;;;;3.83;3.53;;;10.00;1.00;;;;;;5076710;28;20856;-42
2023/03/22 02:37:19;;;;;;;3.40;3.10;;;10.00;1.00;;;;;;5076622;28;20426;-41
2023/03/22 02:40:10;;;;;;;3.43;2.60;;;10.00;1.00;;;;;;5076015;28;20463;-41
2023/03/22 02:42:41;;;;;;;4.27;3.87;;;9.90;1.00;;;;;;5075808;28;20403;-42
2023/03/22 02:45:26;;;;;;;4.20;3.57;;;9.90;1.00;;;;;;5074202;28;20395;-42
2023/03/22 02:47:57;;;;;;;4.63;3.53;;;9.90;1.00;;;;;;5075652;28;20500;-42
2023/03/22 02:50:27;;;;;;;3.20;2.90;;;9.90;1.00;;;;;;5074185;28;20414;-41
2023/03/22 02:53:00;;;;;;;3.40;3.10;;;9.80;1.00;;;;;;5076218;28;20445;-42
2023/03/22 02:55:28;;;;;;;3.93;3.13;;;9.80;1.00;;;;;;5075656;28;20523;-41
2023/03/22 02:57:59;;;;;;;3.17;2.50;;;9.80;1.00;;;;;;5074983;28;20419;-45
2023/03/22 03:00:26;;;;;;;4.37;3.20;;;9.80;1.00;;;;;;5076017;28;20486;-43
2023/03/22 03:02:55;;;;;;;3.40;3.10;;;9.80;1.00;;;;;;5076096;28;20496;-44
2023/03/22 03:05:22;;;;;;;3.37;3.10;;;9.70;8.40;;;;;;5074676;28;20435;-44
2023/03/22 03:07:53;;;;;;;4.10;3.10;;;9.70;27.40;;;;;;5074845;28;20411;-42
2023/03/22 03:10:20;;;;;;;4.67;3.20;;;9.70;27.50;;;;;;5076326;28;20426;-42
2023/03/22 03:12:45;;;;;;;3.37;3.07;;;9.70;27.10;;;;;;5075056;28;20430;-41
2023/03/22 03:15:17;;;;;;;3.13;2.87;;;9.60;36.90;;;;;;5074636;28;20399;-44
2023/03/22 03:17:51;;;;;;;5.13;3.20;;;9.60;41.10;;;;;;5076763;28;20173;-45
2023/03/22 03:20:28;;;;;;;3.70;3.33;;;9.60;25.70;;;;;;5075727;28;20442;-42
2023/03/22 03:23:13;;;;;;;3.53;3.23;;;9.60;49.60;;;;;;5074640;28;20426;-45
2023/03/22 03:25:56;;;;;;;4.30;3.20;;;9.60;85.30;;;;;;5074531;28;20817;-41
2023/03/22 03:28:28;;;;;;;3.70;3.00;;;9.60;92.90;;;;;;5073067;28;20484;-44
2023/03/22 03:31:08;;;;;;;3.50;2.80;;;9.50;99.90;;;;;;5074627;28;20395;-43
2023/03/22 03:33:35;;;;;;;6.63;3.97;;;9.50;99.90;;;;;;5075231;28;20415;-42
2023/03/22 03:36:10;;;;;;;4.40;3.60;;;9.50;99.90;;;;;;5073005;28;20418;-46
2023/03/22 03:38:39;;;;;;;4.27;3.80;;;9.40;99.90;;;;;;5056214;28;20567;-42
2023/03/22 03:41:11;;;;;;;5.13;3.33;;;9.50;99.90;;;;;;5073262;28;20820;-45
2023/03/22 03:43:38;;;;;;;3.67;3.37;;;9.40;99.90;;;;;;5073600;28;20454;-43
2023/03/22 03:46:04;;;;;;;7.97;4.00;;;9.40;99.90;;;;;;5087724;28;20434;-44
2023/03/22 03:48:32;;;;;;;4.07;3.67;;;9.40;99.90;;;;;;5095056;28;20422;-44
2023/03/22 03:50:59;;;;;;;4.00;3.60;;;9.40;99.90;;;;;;5095041;28;20196;-43
2023/03/22 03:53:25;;;;;;;3.53;3.23;;;9.40;99.90;;;;;;5094542;28;20469;-43
2023/03/22 03:55:50;;;;;;;4.13;3.60;;;9.40;99.90;;;;;;5097048;28;20501;-43
2023/03/22 03:58:16;;;;;;;4.40;4.00;;;9.30;99.90;;;;;;5097565;28;20177;-43
2023/03/22 04:00:42;;;;;;;4.03;3.63;;;9.30;99.90;;;;;;5097090;28;20204;-42
2023/03/22 04:03:08;;;;;;;4.30;3.90;;;9.30;99.90;;;;;;5097675;28;20562;-43
2023/03/22 04:05:34;;;;;;;4.07;3.40;;;9.30;99.90;;;;;;5099044;28;20402;-40
2023/03/22 04:07:59;;;;;;;5.17;3.60;;;9.30;99.90;;;;;;5096763;28;20188;-41
2023/03/22 04:10:25;;;;;;;4.07;3.67;;;9.30;99.90;;;;;;5096088;28;20609;-42
2023/03/22 04:12:51;;;;;;;3.87;3.47;;;9.30;1.00;;;;;;5095489;28;20565;-44
2023/03/22 04:15:17;;;;;;;4.00;3.60;;;9.30;1.00;;;;;;5096354;28;20195;-42
2023/03/22 04:17:42;;;;;;;4.33;3.63;;;9.20;1.00;;;;;;5094404;28;20168;-43
2023/03/22 04:20:09;;;;;;;5.03;3.60;;;9.20;1.00;;;;;;5095592;28;20450;-44
2023/03/22 04:22:37;;;;;;;3.73;3.37;;;9.20;1.00;;;;;;5096590;28;20168;-44
2023/03/22 04:25:12;;;;;;;3.90;2.97;;;9.20;1.00;;;;;;5096991;28;20495;-43
2023/03/22 04:27:41;;;;;;;4.17;3.30;;;9.10;1.00;;;;;;5097790;28;20445;-43
2023/03/22 04:30:09;;;;;;;3.70;3.30;;;9.10;1.00;;;;;;5098232;28;20460;-45
2023/03/22 04:32:35;;;;;;;3.43;2.93;;;9.10;1.00;;;;;;5096697;28;20418;-43
2023/03/22 04:35:01;;;;;;;3.87;3.50;;;9.10;1.00;;;;;;5096630;28;20793;-44
2023/03/22 04:37:27;;;;;;;4.10;3.27;;;9.10;1.00;;;;;;5094923;28;20418;-43
2023/03/22 04:39:53;;;;;;;3.50;3.07;;;9.10;1.00;;;;;;5095333;28;20458;-43
2023/03/22 04:42:19;;;;;;;3.80;3.40;;;9.10;99.90;;;;;;5095822;28;20196;-42
2023/03/22 04:44:45;;;;;;;3.40;3.10;;;9.10;99.90;;;;;;5095916;28;20441;-43
2023/03/22 04:47:11;;;;;;;4.17;3.63;;;9.00;99.90;;;;;;5094920;28;20422;-44
2023/03/22 04:49:36;;;;;;;6.30;4.17;;;9.00;1.00;;;;;;5093956;28;20187;-46
2023/03/22 04:52:02;;;;;;;5.40;4.00;;;9.00;1.00;;;;;;5097216;28;20301;-44
2023/03/22 04:54:28;;;;;;;4.17;3.50;;;9.00;1.00;;;;;;5096831;28;20760;-42
2023/03/22 04:56:53;;;;;;;4.67;3.53;;;9.00;1.00;;;;;;5096474;28;20655;-42
2023/03/22 04:59:20;;;;;;;6.10;3.27;;;9.00;1.00;;;;;;5097680;28;20519;-45
2023/03/22 05:01:46;;;;;;;6.30;3.43;;;8.90;1.00;;;;;;5098122;28;20275;-44
2023/03/22 05:04:12;;;;;;;4.00;3.30;;;8.90;1.00;;;;;;5097170;28;20530;-44
2023/03/22 05:06:38;;;;;;;4.37;3.40;;;8.90;1.00;;;;;;5086541;28;20905;-46
2023/03/22 05:09:04;;;;;;;3.53;3.23;;;8.90;1.00;;;;;;5095584;28;20438;-45
2023/03/22 05:11:30;;;;;;;4.50;3.80;;;8.90;1.00;;;;;;5092581;28;20176;-43
2023/03/22 05:13:56;;;;;;;4.80;3.70;;;8.90;1.00;;;;;;5093548;28;20452;-45
2023/03/22 05:16:22;;;;;;;4.57;4.17;;;8.90;1.00;;;;;;5092276;28;20473;-44
2023/03/22 05:18:53;;;;;;;4.80;3.50;;;8.90;1.00;;;;;;5092951;28;20884;-43
2023/03/22 05:21:39;;;;;;;4.57;4.00;;;8.90;1.00;;;;;;5093508;28;20886;-43
2023/03/22 05:24:06;;;;;;;3.93;3.20;;;8.90;1.00;;;;;;5093250;28;20438;-42
2023/03/22 05:26:31;;;;;;;3.73;3.00;;;8.90;1.00;;;;;;5092096;28;20470;-41
2023/03/22 05:28:57;;;;;;;4.17;2.83;;;8.90;1.00;;;;;;5094071;28;20430;-43
2023/03/22 05:31:23;;;;;;;4.30;3.40;;;8.90;1.00;;;;;;5092240;28;20451;-44
2023/03/22 05:33:50;;;;;;;5.40;4.20;;;8.90;1.00;;;;;;5092418;28;20422;-44
2023/03/22 05:36:16;;;;;;;3.67;3.27;;;8.90;1.00;;;;;;5092352;28;20295;-43
2023/03/22 05:38:43;;;;;;;4.50;3.80;;;8.90;1.00;;;;;;5094304;28;20464;-43
2023/03/22 05:41:09;;;;;;;4.43;3.30;;;8.90;1.00;;;;;;5095931;28;20651;-44
2023/03/22 05:43:35;;;;;;;6.23;3.47;;;9.00;1.00;;;;;;5078054;28;20438;-46
2023/03/22 05:46:07;;;;;;;4.00;3.10;;;9.00;1.00;;;;;;5095067;28;20739;-44
2023/03/22 05:48:33;;;;;;;3.57;3.27;;;9.00;1.00;;;;;;5094358;28;20184;-46
2023/03/22 05:50:58;;;;;;;5.80;3.83;;;9.10;1.00;;;;;;5094251;28;20834;-45
2023/03/22 05:53:24;;;;;;;3.67;3.20;;;9.10;1.00;;;;;;5094358;28;20547;-43
2023/03/22 05:55:49;;;;;;;4.93;2.93;;;9.20;1.00;;;;;;5094143;28;20487;-42
2023/03/22 05:58:17;;;;;;;3.67;3.33;;;9.20;1.00;;;;;;5092081;28;20238;-47
2023/03/22 06:00:44;;;;;;;6.27;3.97;;;9.20;1.00;;;;;;5088441;28;20199;-45
2023/03/22 06:03:10;;;;;;;5.30;3.73;;;9.30;1.00;;;;;;5091776;28;20429;-44
2023/03/22 06:05:36;;;;;;;4.37;3.17;;;9.40;99.90;;;;;;5090357;28;20510;-43
2023/03/22 06:08:02;;;;;;;4.73;3.20;;;9.50;99.90;;;;;;5088878;28;20535;-43
2023/03/22 06:10:28;;;;;;;3.53;3.23;;;9.50;99.90;;;;;;5085488;28;20185;-41
2023/03/22 06:12:54;;;;;;;3.70;3.23;;;9.70;99.90;;;;;;5085657;28;20740;-42
2023/03/22 06:15:20;;;;;;;4.53;4.13;;;9.80;99.90;;;;;;5088202;28;20171;-44
2023/03/22 06:17:46;;;;;;;5.17;3.70;;;10.00;99.90;;;;;;5087789;28;20418;-45
2023/03/22 06:20:13;;;;;;;3.33;3.03;;;10.20;46.70;;;;;;5084281;28;21006;-45
2023/03/22 06:22:39;;;;;;;3.93;3.27;;;10.40;1.00;;;;;;5086556;28;20647;-44
2023/03/22 06:25:08;;;;;;;6.63;3.13;;;10.60;1.00;;;;;;5090324;28;20422;-43
2023/03/22 06:27:34;;;;;;;3.13;2.80;;;10.80;1.00;;;;;;5090301;28;20490;-44
2023/03/22 06:30:01;;;;;;;3.93;3.63;;;11.10;99.90;;;;;;5089474;28;20454;-44
2023/03/22 06:32:27;;;;;;;4.17;3.60;;;11.40;99.90;;;;;;5089407;28;20438;-43
2023/03/22 06:34:53;;;;;;;4.17;3.40;;;11.70;99.90;;;;;;5086404;28;20481;-44
2023/03/22 06:37:19;;;;;;;5.47;2.93;;;12.00;99.90;;;;;;5086234;28;20237;-45
2023/03/22 06:39:45;;;;;;;4.50;3.23;;;12.20;99.90;;;;;;5088341;28;20473;-44
2023/03/22 06:42:10;;;;;;;3.63;3.33;;;12.50;49.90;;;;;;5088972;28;20320;-43
2023/03/22 06:44:36;;;;;;;3.30;2.97;;;12.70;6.60;;;;;;5088552;28;20414;-42
2023/03/22 06:47:02;;;;;;;4.37;2.97;;;12.90;1.00;;;;;;5087721;28;20263;-42
2023/03/22 06:49:28;;;;;;;4.13;3.37;;;13.00;1.00;;;;;;5088836;28;20234;-42
2023/03/22 06:51:53;;;;;;;4.17;3.77;;;13.10;1.00;;;;;;5089441;28;20820;-43
2023/03/22 06:54:19;;;;;;;3.63;2.70;;;13.20;1.00;;;;;;5089521;28;20175;-43
2023/03/22 06:56:45;;;;;;;3.70;3.30;;;13.40;1.00;;;;;;5089820;28;20280;-45
2023/03/22 06:59:11;;;;;;;3.53;3.23;;;13.50;1.00;;;;;;5090026;28;20177;-45
2023/03/22 07:01:36;;;;;;;3.57;3.27;;;13.70;1.00;;;;;;5089676;28;20222;-45
2023/03/22 07:04:02;;;;;;;3.10;2.90;;;13.90;1.00;;;;;;5090608;28;20182;-44
2023/03/22 07:06:29;;;;;;;3.97;3.10;;;14.00;1.00;;;;;;5092059;28;20202;-42
2023/03/22 07:08:55;;;;;;;4.83;3.57;;;14.20;1.00;;;;;;5094050;28;20641;-43
2023/03/22 07:11:20;;;;;;;3.87;3.30;;;14.40;1.00;;;;;;5093058;28;20515;-43
2023/03/22 07:13:46;;;;;;;2.90;2.70;;;14.70;1.00;;;;;;5092572;28;20820;-44
2023/03/22 07:16:11;;;;;;;3.80;3.40;;;14.90;1.00;;;;;;5090075;28;20582;-43
2023/03/22 07:18:37;;;;;;;5.53;3.13;;;15.10;1.00;;;;;;5088580;28;20273;-44
2023/03/22 07:21:03;;;;;;;3.57;3.03;;;15.40;1.00;;;;;;5091437;28;20200;-43
2023/03/22 07:23:29;;;;;;;3.70;2.87;;;15.60;1.00;;;;;;5092434;28;20184;-42
2023/03/22 07:25:54;;;;;;;2.47;2.20;;;15.80;1.00;;;;;;5092221;28;20515;-43
2023/03/22 07:28:21;;;;;;;3.00;2.40;;;16.20;1.00;;;;;;5092322;28;20540;-42
2023/03/22 07:30:46;;;;;;;3.20;2.33;;;16.70;1.00;;;;;;5094302;28;20669;-43
2023/03/22 07:33:12;;;;;;;3.80;2.60;;;17.30;1.00;;;;;;5091976;28;20525;-45
2023/03/22 07:35:38;;;;;;;4.00;2.53;;;18.10;1.00;;;;;;5094461;28;20713;-44
2023/03/22 07:38:05;;;;;;;3.03;2.20;;;18.90;1.00;;;;;;5095639;28;20176;-44
2023/03/22 07:40:31;;;;;;;2.97;2.67;;;19.70;1.00;;;;;;5096454;28;20208;-44
2023/03/22 07:42:57;;;;;;;3.37;2.43;;;20.40;1.00;;;;;;5095255;28;20831;-43
2023/03/22 07:45:24;;;;;;;4.10;2.30;;;21.20;1.00;;;;;;5094174;28;20160;-43
2023/03/22 07:47:49;;;;;;;2.97;2.43;;;21.90;1.00;;;;;;5093492;28;20510;-42
2023/03/22 07:50:16;;;;;;;2.63;2.07;;;22.50;1.00;;;;;;5093652;28;20684;-44
2023/03/22 07:52:42;;;;;;;3.20;1.97;;;23.00;1.00;;;;;;5095550;28;20581;-43
2023/03/22 07:55:09;;;;;;;3.10;1.87;;;23.30;1.00;;;;;;5093147;28;20402;-44
2023/03/22 07:57:35;;;;;;;2.83;2.03;;;23.80;1.00;;;;;;5093027;28;20501;-46
2023/03/22 08:00:01;;;;;;;2.37;2.17;;;24.00;1.00;;;;;;5094179;28;20457;-45
2023/03/22 08:02:26;;;;;;;3.10;1.90;;;24.40;1.00;;;;;;5094597;28;20554;-44
2023/03/22 08:04:53;;;;;;;2.10;1.90;;;24.70;1.00;;;;;;5094361;28;20208;-45
2023/03/22 08:07:19;;;;;;;3.13;2.03;;;25.10;1.00;;;;;;5094526;28;20303;-45
2023/03/22 08:09:45;;;;;;;3.43;2.20;;;25.70;1.00;;;;;;5094805;28;20449;-46
2023/03/22 08:12:11;;;;;;;3.40;2.30;;;26.30;1.00;;;;;;5096179;28;20653;-44
2023/03/22 08:14:37;;;;;;;2.43;2.00;;;26.90;1.00;;;;;;5098193;28;20192;-43
2023/03/22 08:17:05;;;;;;;2.47;1.83;;;27.70;1.00;;;;;;5096678;28;20672;-45
2023/03/22 08:19:32;;;;;;;2.30;1.63;;;28.30;1.00;;;;;;5098375;28;20267;-42
2023/03/22 08:21:58;;;;;;;4.87;1.60;;;29.10;1.00;;;;;;5096225;28;20420;-44
2023/03/22 08:24:25;;;;;;;2.60;1.60;;;29.70;1.00;;;;;;5095993;28;20438;-42
2023/03/22 08:26:50;;;;;;;2.30;1.40;;;30.20;1.00;;;;;;5095346;28;20564;-44
2023/03/22 08:29:17;;;;;;;2.33;1.37;;;30.70;1.00;;;;;;5096273;28;20935;-43
2023/03/22 08:31:43;;;;;;;2.30;1.50;;;31.30;1.00;;;;;;5094476;28;20187;-44
2023/03/22 08:34:09;;;;;;;2.80;1.60;;;31.70;1.00;;;;;;5092471;28;20408;-43
2023/03/22 08:36:34;;;;;;;2.77;1.80;;;32.30;1.00;;;;;;5095478;28;20389;-42
2023/03/22 08:39:00;;;;;;;2.10;1.50;;;32.80;1.00;;;;;;5095250;28;20181;-42
2023/03/22 08:41:26;;;;;;;2.67;1.90;;;33.20;1.00;;;;;;5093807;28;20405;-43
2023/03/22 08:43:52;;;;;;;2.37;1.40;;;33.70;1.00;;;;;;5096872;28;20711;-43
2023/03/22 08:46:17;;;;;;;2.93;1.77;;;34.40;1.00;;;;;;5095117;28;20381;-44
2023/03/22 08:48:49;;;;;;;2.30;1.60;;;34.70;1.00;;;;;;5097202;28;20180;-43
2023/03/22 08:51:19;;;;;;;3.10;1.60;;;35.10;1.00;;;;;;5096767;28;20541;-43
2023/03/22 08:53:46;;;;;;;1.63;1.53;;;35.60;1.00;;;;;;5094393;28;20571;-42
2023/03/22 08:56:13;;;;;;;2.00;1.50;;;36.00;1.00;;;;;;5094362;28;20417;-42
2023/03/22 08:58:41;;;;;;;2.13;1.60;;;36.30;1.00;;;;;;5094390;28;20437;-42
2023/03/22 09:01:10;;;;;;;2.60;1.93;;;36.80;1.00;;;;;;5094523;28;20915;-43
2023/03/22 09:03:35;;;;;;;2.10;1.60;;;37.10;1.00;;;;;;5094685;28;20469;-45
2023/03/22 09:06:01;;;;;;;1.80;1.50;;;37.30;1.00;;;;;;5095062;28;20393;-42
2023/03/22 09:08:28;;;;;;;1.97;1.70;;;37.50;1.00;;;;;;5094909;28;20184;-44
2023/03/22 09:10:53;;;;;;;2.20;1.60;;;37.70;1.00;;;;;;5095228;28;20164;-44
2023/03/22 09:13:19;;;;;;;1.60;1.40;;;37.90;1.00;;;;;;5095543;28;20462;-44
2023/03/22 09:15:46;;;;;;;1.80;1.43;;;38.10;1.00;;;;;;5095801;28;20236;-42
2023/03/22 09:18:12;;;;;;;1.70;1.60;;;38.30;1.00;;;;;;5092695;28;20505;-45
2023/03/22 09:20:38;;;;;;;2.70;1.80;;;38.40;1.00;;;;;;5092593;28;20561;-45
2023/03/22 09:23:03;;;;;;;1.97;1.33;;;38.50;1.00;;;;;;5094283;28;20203;-42
2023/03/22 09:25:29;;;;;;;2.57;1.60;;;38.80;1.00;;;;;;5093929;28;21065;-43
2023/03/22 09:27:55;;;;;;;2.53;1.63;;;38.70;1.00;;;;;;5091645;28;20309;-43
2023/03/22 09:30:20;;;;;;;2.40;1.70;;;38.50;1.00;;;;;;5092890;28;20204;-42
2023/03/22 09:32:46;;;;;;;2.00;1.70;;;38.10;1.00;;;;;;5094526;28;20547;-43
2023/03/22 09:35:11;;;;;;;4.50;2.03;;;37.80;1.00;;;;;;5094975;28;20176;-44
2023/03/22 09:37:38;;;;;;;3.50;1.90;;;37.70;1.00;;;;;;5094614;28;20230;-49
2023/03/22 09:40:05;;;;;;;3.13;1.60;;;37.80;1.00;;;;;;5093156;28;20625;-43
2023/03/22 09:42:43;;;;;;;2.33;1.60;;;37.60;1.00;;;;;;5094862;28;20438;-44
2023/03/22 09:45:23;;;;;;;2.77;1.53;;;37.50;1.00;;;;;;5075046;28;20415;-45
2023/03/22 09:47:51;;;;;;;3.03;1.67;;;37.10;1.00;;;;;;5093180;28;20446;-43
2023/03/22 09:50:23;;;;;;;2.10;1.50;;;36.70;1.00;;;;;;5093861;28;20403;-43
2023/03/22 09:52:49;;;;;;;2.10;1.30;;;36.50;1.00;;;;;;5091685;28;20437;-45
2023/03/22 09:55:29;;;;;;;1.53;1.43;;;36.30;1.00;;;;;;5092668;28;20495;-46
2023/03/22 09:58:24;;;;;;;3.07;1.77;;;36.30;1.00;;;;;;5073564;28;20458;-43
2023/03/22 10:01:14;;;;;;;2.40;1.50;;;36.30;1.00;;;;;;5092880;28;21045;-43
2023/03/22 10:04:15;;;;;;;2.30;1.63;;;36.30;99.90;;;;;;5091224;28;20866;-43
2023/03/22 10:06:46;;;;;;;1.60;1.40;;;36.10;99.90;;;;;;5092188;28;20844;-43
2023/03/22 10:09:25;;;;;;;1.70;1.40;;;35.50;99.90;;;;;;5074786;28;20457;-44
2023/03/22 10:11:59;;;;;;;1.80;1.40;;;35.30;99.90;;;;;;5092107;28;20410;-47
2023/03/22 10:14:27;;;;;;;3.70;1.50;;;35.40;99.90;;;;;;5092281;28;21005;-45
2023/03/22 10:16:54;;;;;;;2.43;1.57;;;35.60;99.90;;;;;;5092456;28;20406;-45
2023/03/22 10:19:22;;;;;;;1.70;1.30;;;35.40;99.90;;;;;;5092010;28;20418;-45
2023/03/22 10:21:50;;;;;;;1.50;1.10;;;35.20;99.90;;;;;;5093553;28;20454;-43
2023/03/22 10:24:27;;;;;;;1.50;1.13;;;35.60;99.90;;;;;;5094739;28;20445;-45
2023/03/22 10:26:53;;;;;;;1.77;1.20;;;36.30;99.90;;;;;;5093621;28;20476;-44
2023/03/22 10:29:32;;;;;;;1.50;1.07;;;37.40;1.00;;;;;;5094930;28;20441;-43
2023/03/22 10:32:28;;;;;;;1.60;1.23;;;38.40;1.00;;;;;;5094942;28;20735;-48
2023/03/22 10:34:55;;;;;;;1.63;1.10;;;39.60;1.00;;;;;;5080928;28;20458;-43
2023/03/22 10:37:23;;;;;;;1.70;1.13;;;40.70;1.00;;;;;;5093528;28;20499;-45
2023/03/22 10:39:55;;;;;;;1.40;1.27;;;41.60;1.00;;;;;;5093553;28;20590;-45
2023/03/22 10:42:26;;;;;;;1.40;0.97;;;42.60;1.00;;;;;;5092752;28;20418;-45
2023/03/22 10:45:01;;;;;;;1.30;1.00;;;43.20;1.00;;;;;;5092916;28;20483;-45
2023/03/22 10:47:43;;;;;;;2.20;1.30;;;44.00;1.00;;;;;;5095150;28;20418;-44
2023/03/22 10:50:21;;;;;;;1.20;0.93;;;44.60;1.00;;;;;;5093679;28;20466;-45
2023/03/22 10:52:53;;;;;;;2.87;1.30;;;44.80;1.00;;;;;;5094642;28;20433;-44
2023/03/22 10:55:19;;;;;;;2.17;1.10;;;44.70;1.00;;;;;;5093425;28;21013;-45
2023/03/22 10:57:55;;;;;;;2.00;1.10;;;44.80;1.00;;;;;;5094279;28;20406;-45
2023/03/22 11:00:22;;;;;;;2.10;1.27;;;43.70;1.00;;;;;;5076290;28;20214;-44
2023/03/22 11:02:57;;;;;;;3.13;1.30;;;42.00;1.00;;;;;;5093472;28;20419;-44
2023/03/22 11:05:25;;;;;;;3.83;1.13;;;40.00;1.00;;;;;;5091422;28;20421;-44
2023/03/22 11:07:51;;;;;;;2.80;1.00;;;38.70;99.90;;;;;;5092272;28;21083;-44
2023/03/22 11:10:21;;;;;;;2.73;1.50;;;37.80;99.90;;;;;;5090556;28;20492;-44
2023/03/22 11:12:52;;;;;;;2.60;1.30;;;36.90;99.90;;;;;;5091421;28;20403;-43
2023/03/22 11:15:30;;;;;;;5.07;1.70;;;36.40;99.90;;;;;;5093224;28;20720;-43
2023/03/22 11:18:11;;;;;;;4.90;1.50;;;36.00;99.90;;;;;;5095220;28;20421;-45
2023/03/22 11:20:40;;;;;;;4.90;1.90;;;35.80;99.90;;;;;;5090512;28;20438;-43
2023/03/22 11:23:06;;;;;;;2.80;1.67;;;35.40;99.90;;;;;;5089960;28;21105;-44
2023/03/22 11:25:35;;;;;;;6.33;2.00;;;35.40;99.90;;;;;;5090169;28;20414;-45
2023/03/22 11:28:03;;;;;;;2.63;1.70;;;35.60;99.90;;;;;;5090843;28;20517;-44
2023/03/22 11:30:31;;;;;;;3.03;1.50;;;35.80;99.90;;;;;;5093499;28;20466;-44
2023/03/22 11:33:20;;;;;;;2.30;1.47;;;35.70;99.90;;;;;;5093550;28;20429;-44
2023/03/22 11:35:52;;;;;;;3.00;1.70;;;35.90;99.90;;;;;;5093115;28;20499;-45
2023/03/22 11:38:24;;;;;;;3.17;1.10;;;36.30;99.90;;;;;;5093161;28;20480;-44
2023/03/22 11:40:56;;;;;;;2.13;1.50;;;36.30;99.90;;;;;;5091992;28;20888;-44
2023/03/22 11:43:49;;;;;;;4.50;1.50;;;35.90;99.90;;;;;;5093292;28;20444;-45
2023/03/22 11:46:18;;;;;;;2.37;1.23;;;35.10;99.90;;;;;;5090864;28;20492;-44
2023/03/22 11:48:45;;;;;;;3.33;1.67;;;34.70;99.90;;;;;;5092407;28;20707;-44
2023/03/22 11:51:16;;;;;;;2.70;1.23;;;34.60;99.90;;;;;;5091043;28;20467;-45
2023/03/22 11:53:45;;;;;;;2.00;1.00;;;34.60;99.90;;;;;;5092393;28;20392;-46
2023/03/22 11:56:16;;;;;;;1.40;1.20;;;35.00;99.90;;;;;;5092461;28;20479;-44
2023/03/22 11:58:43;;;;;;;2.93;1.10;;;35.20;99.90;;;;;;5091186;28;20744;-46
2023/03/22 12:01:34;;;;;;;2.23;1.20;;;35.10;99.90;;;;;;5092025;28;20423;-44
2023/03/22 12:04:00;;;;;;;1.60;1.10;;;35.30;99.90;;;;;;5092274;28;20465;-44
2023/03/22 12:06:29;;;;;;;1.87;1.20;;;35.90;99.90;;;;;;5092136;28;20452;-45
2023/03/22 12:08:59;;;;;;;2.73;1.30;;;36.40;99.90;;;;;;5091569;28;20439;-44
2023/03/22 12:11:32;;;;;;;1.87;1.20;;;36.80;99.90;;;;;;5091543;28;20470;-44
2023/03/22 12:14:20;;;;;;;2.67;1.10;;;37.30;99.90;;;;;;5094062;28;20432;-45
2023/03/22 12:16:49;;;;;;;1.97;1.10;;;37.70;99.90;;;;;;5093646;28;20826;-49
2023/03/22 12:19:23;;;;;;;2.00;0.90;;;38.00;1.00;;;;;;5094078;28;20738;-47
2023/03/22 12:21:50;;;;;;;1.70;1.20;;;37.60;99.90;;;;;;5093414;28;20518;-45
2023/03/22 12:24:28;;;;;;;1.30;0.90;;;37.30;99.90;;;;;;5095970;28;20463;-45
2023/03/22 12:27:28;;;;;;;1.50;0.97;;;37.00;99.90;;;;;;5095322;28;20478;-45
2023/03/22 12:30:20;;;;;;;2.40;1.10;;;36.90;99.90;;;;;;5049339;28;20586;-44
2023/03/22 12:33:14;;;;;;;1.37;0.90;;;36.30;99.90;;;;;;5057749;28;20819;-44
2023/03/22 12:35:42;;;;;;;1.53;1.20;;;35.60;99.90;;;;;;5062945;28;20484;-45
2023/03/22 12:38:17;;;;;;;1.37;1.03;;;34.90;99.90;;;;;;5089605;28;20433;-47
2023/03/22 12:40:43;;;;;;;1.83;1.03;;;34.50;99.90;;;;;;5093177;28;20432;-43
2023/03/22 12:43:21;;;;;;;1.60;1.20;;;34.20;99.90;;;;;;5093685;28;20673;-43
2023/03/22 12:45:52;;;;;;;1.37;1.10;;;34.20;99.90;;;;;;5093364;28;20439;-44
2023/03/22 12:48:17;;;;;;;1.77;1.37;;;34.40;99.90;;;;;;5094001;28;20397;-44
2023/03/22 12:50:57;;;;;;;2.17;1.13;;;34.70;99.90;;;;;;5093259;28;20473;-44
2023/03/22 12:53:27;;;;;;;1.50;0.90;;;34.90;99.90;;;;;;5075247;28;20419;-45
2023/03/22 12:55:54;;;;;;;1.67;0.80;;;35.30;99.90;;;;;;5091141;28;20692;-44
2023/03/22 12:58:22;;;;;;;1.60;1.10;;;35.50;99.90;;;;;;5093238;28;20426;-44
2023/03/22 13:00:57;;;;;;;1.33;1.00;;;35.90;99.90;;;;;;5094768;28;20901;-44
2023/03/22 13:03:39;;;;;;;1.70;1.20;;;36.00;99.90;;;;;;5094084;28;20421;-43
2023/03/22 13:06:06;;;;;;;2.43;1.30;;;36.00;99.90;;;;;;5094129;28;20426;-45
2023/03/22 13:09:11;;;;;;;3.60;1.30;;;36.40;99.90;;;;;;5092042;28;20440;-48